sensor_id;sensor_type;location;lat;lon;timestamp;temperature;humidity
13707;DHT22;6925;47.816;13.072;2022-09-13T01:10:20;16.30;69.40
13707;DHT22;6925;47.816;13.072;2022-09-13T01:12:51;16.30;69.60
13707;DHT22;6925;47.816;13.072;2022-09-13T01:15:24;16.30;69.60
13707;DHT22;6925;47.816;13.072;2022-09-13T01:17:52;16.30;69.50
13707;DHT22;6925;47.816;13.072;2022-09-13T01:20:24;16.30;69.50
13707;DHT22;6925;47.816;13.072;2022-09-13T03:00:16;15.80;70.60
13707;DHT22;6925;47.816;13.072;2022-09-13T03:02:49;15.80;71.00
13707;DHT22;6925;47.816;13.072;2022-09-13T03:29:46;15.70;71.20
13707;DHT22;6925;47.816;13.072;2022-09-13T03:32:24;15.70;71.00
13707;DHT22;6925;47.816;13.072;2022-09-13T03:35:00;15.60;71.10
13707;DHT22;6925;47.816;13.072;2022-09-13T03:37:36;15.70;71.30
13707;DHT22;6925;47.816;13.072;2022-09-13T03:40:11;15.60;71.10
13707;DHT22;6925;47.816;13.072;2022-09-13T03:42:43;15.60;71.10
13707;DHT22;6925;47.816;13.072;2022-09-13T03:45:22;15.60;71.00
13707;DHT22;6925;47.816;13.072;2022-09-13T03:47:51;15.60;71.10
13707;DHT22;6925;47.816;13.072;2022-09-13T03:50:22;15.60;71.10
13707;DHT22;6925;47.816;13.072;2022-09-13T03:52:56;15.60;71.10
13707;DHT22;6925;47.816;13.072;2022-09-13T03:55:38;15.60;71.20
13707;DHT22;6925;47.816;13.072;2022-09-13T04:11:52;15.50;71.50
13707;DHT22;6925;47.816;13.072;2022-09-13T04:14:20;15.60;71.40
13707;DHT22;6925;47.816;13.072;2022-09-13T04:16:53;15.50;71.30
13707;DHT22;6925;47.816;13.072;2022-09-13T04:19:21;15.50;71.40
13707;DHT22;6925;47.816;13.072;2022-09-13T04:21:50;15.50;71.40
13707;DHT22;6925;47.816;13.072;2022-09-13T04:24:19;15.50;71.50
13707;DHT22;6925;47.816;13.072;2022-09-13T04:26:49;15.50;71.70
13707;DHT22;6925;47.816;13.072;2022-09-13T04:29:23;15.50;71.50
13707;DHT22;6925;47.816;13.072;2022-09-13T04:37:32;15.40;71.70
13707;DHT22;6925;47.816;13.072;2022-09-13T04:40:01;15.30;72.00
13707;DHT22;6925;47.816;13.072;2022-09-13T04:42:51;15.40;72.10
13707;DHT22;6925;47.816;13.072;2022-09-13T04:45:35;15.40;72.00
13707;DHT22;6925;47.816;13.072;2022-09-13T04:48:05;15.40;71.90
13707;DHT22;6925;47.816;13.072;2022-09-13T04:50:32;15.40;71.90
13707;DHT22;6925;47.816;13.072;2022-09-13T04:53:00;15.40;71.80
13707;DHT22;6925;47.816;13.072;2022-09-13T04:55:37;15.40;72.00
13707;DHT22;6925;47.816;13.072;2022-09-13T04:58:07;15.40;71.90
13707;DHT22;6925;47.816;13.072;2022-09-13T05:00:36;15.40;71.70
13707;DHT22;6925;47.816;13.072;2022-09-13T05:03:09;15.30;72.00
13707;DHT22;6925;47.816;13.072;2022-09-13T05:05:48;15.40;72.20
13707;DHT22;6925;47.816;13.072;2022-09-13T05:28:47;15.40;72.70
13707;DHT22;6925;47.816;13.072;2022-09-13T05:31:17;15.40;72.70
13707;DHT22;6925;47.816;13.072;2022-09-13T05:34:03;15.40;72.70
13707;DHT22;6925;47.816;13.072;2022-09-13T05:36:33;15.40;72.70
13707;DHT22;6925;47.816;13.072;2022-09-13T05:39:01;15.40;72.70
13707;DHT22;6925;47.816;13.072;2022-09-13T07:40:42;16.80;70.30
13707;DHT22;6925;47.816;13.072;2022-09-13T07:43:11;16.90;70.50
13707;DHT22;6925;47.816;13.072;2022-09-13T07:45:39;16.90;70.40
13707;DHT22;6925;47.816;13.072;2022-09-13T07:48:06;17.00;70.50
13707;DHT22;6925;47.816;13.072;2022-09-13T07:50:48;17.10;71.00
13707;DHT22;6925;47.816;13.072;2022-09-13T07:53:22;17.10;70.40
13707;DHT22;6925;47.816;13.072;2022-09-13T07:56:07;17.20;70.30
13707;DHT22;6925;47.816;13.072;2022-09-13T07:58:36;17.30;70.30
13707;DHT22;6925;47.816;13.072;2022-09-13T08:01:08;17.30;70.80
13707;DHT22;6925;47.816;13.072;2022-09-13T08:03:39;17.40;70.10
13707;DHT22;6925;47.816;13.072;2022-09-13T08:06:08;17.50;70.20
13707;DHT22;6925;47.816;13.072;2022-09-13T08:08:44;17.60;70.10
13707;DHT22;6925;47.816;13.072;2022-09-13T08:11:15;17.70;70.10
13707;DHT22;6925;47.816;13.072;2022-09-13T08:13:44;17.80;69.70
13707;DHT22;6925;47.816;13.072;2022-09-13T08:16:12;17.90;70.50
13707;DHT22;6925;47.816;13.072;2022-09-13T08:22:20;18.20;70.00
13707;DHT22;6925;47.816;13.072;2022-09-13T08:24:47;18.40;69.80
13707;DHT22;6925;47.816;13.072;2022-09-13T08:27:16;18.60;69.80
13707;DHT22;6925;47.816;13.072;2022-09-13T08:29:47;18.70;69.40
13707;DHT22;6925;47.816;13.072;2022-09-13T08:32:18;18.90;70.60
13707;DHT22;6925;47.816;13.072;2022-09-13T08:34:49;19.20;69.20
13707;DHT22;6925;47.816;13.072;2022-09-13T08:37:17;19.30;68.20
13707;DHT22;6925;47.816;13.072;2022-09-13T08:39:51;19.50;68.00
13707;DHT22;6925;47.816;13.072;2022-09-13T08:42:30;19.70;68.30
13707;DHT22;6925;47.816;13.072;2022-09-13T08:45:01;19.80;67.20
13707;DHT22;6925;47.816;13.072;2022-09-13T08:47:38;20.00;67.40
13707;DHT22;6925;47.816;13.072;2022-09-13T08:50:12;20.20;67.30
13707;DHT22;6925;47.816;13.072;2022-09-13T08:52:56;20.40;66.60
13707;DHT22;6925;47.816;13.072;2022-09-13T08:55:28;20.50;66.00
13707;DHT22;6925;47.816;13.072;2022-09-13T08:58:08;20.70;66.30
13707;DHT22;6925;47.816;13.072;2022-09-13T09:00:45;20.90;65.90
13707;DHT22;6925;47.816;13.072;2022-09-13T09:03:23;21.10;65.70
13707;DHT22;6925;47.816;13.072;2022-09-13T09:05:54;21.30;65.20
13707;DHT22;6925;47.816;13.072;2022-09-13T09:08:39;21.50;65.20
13707;DHT22;6925;47.816;13.072;2022-09-13T09:11:18;21.70;66.00
13707;DHT22;6925;47.816;13.072;2022-09-13T09:13:53;22.00;66.70
13707;DHT22;6925;47.816;13.072;2022-09-13T09:16:32;22.30;65.40
13707;DHT22;6925;47.816;13.072;2022-09-13T09:19:15;22.50;64.80
13707;DHT22;6925;47.816;13.072;2022-09-13T09:21:48;22.60;61.40
13707;DHT22;6925;47.816;13.072;2022-09-13T09:24:20;22.70;62.00
13707;DHT22;6925;47.816;13.072;2022-09-13T09:26:48;22.90;61.20
13707;DHT22;6925;47.816;13.072;2022-09-13T09:29:20;23.00;61.50
13707;DHT22;6925;47.816;13.072;2022-09-13T09:31:58;23.20;61.80
13707;DHT22;6925;47.816;13.072;2022-09-13T09:34:43;23.40;59.50
13707;DHT22;6925;47.816;13.072;2022-09-13T09:37:19;23.60;60.60
13707;DHT22;6925;47.816;13.072;2022-09-13T09:39:48;23.90;60.50
13707;DHT22;6925;47.816;13.072;2022-09-13T09:42:18;24.10;61.50
13707;DHT22;6925;47.816;13.072;2022-09-13T09:44:51;24.30;59.90
13707;DHT22;6925;47.816;13.072;2022-09-13T09:47:21;24.40;58.40
13707;DHT22;6925;47.816;13.072;2022-09-13T09:49:54;24.60;56.40
13707;DHT22;6925;47.816;13.072;2022-09-13T09:52:42;24.70;56.80
13707;DHT22;6925;47.816;13.072;2022-09-13T09:55:16;24.90;55.40
13707;DHT22;6925;47.816;13.072;2022-09-13T09:57:50;25.00;55.10
13707;DHT22;6925;47.816;13.072;2022-09-13T10:00:22;25.30;56.90
13707;DHT22;6925;47.816;13.072;2022-09-13T10:02:52;25.50;56.90
13707;DHT22;6925;47.816;13.072;2022-09-13T10:05:22;25.60;54.50
13707;DHT22;6925;47.816;13.072;2022-09-13T10:07:59;25.80;55.70
13707;DHT22;6925;47.816;13.072;2022-09-13T10:10:35;26.00;56.10
13707;DHT22;6925;47.816;13.072;2022-09-13T10:13:06;26.20;56.20
13707;DHT22;6925;47.816;13.072;2022-09-13T10:15:35;26.40;54.60
13707;DHT22;6925;47.816;13.072;2022-09-13T10:18:12;26.50;52.60
13707;DHT22;6925;47.816;13.072;2022-09-13T10:20:42;26.70;49.70
13707;DHT22;6925;47.816;13.072;2022-09-13T10:23:20;26.80;50.00
13707;DHT22;6925;47.816;13.072;2022-09-13T10:26:01;27.00;50.50
13707;DHT22;6925;47.816;13.072;2022-09-13T10:28:30;27.20;50.50
13707;DHT22;6925;47.816;13.072;2022-09-13T10:31:03;27.40;50.30
13707;DHT22;6925;47.816;13.072;2022-09-13T10:33:36;27.70;50.00
13707;DHT22;6925;47.816;13.072;2022-09-13T10:36:07;28.00;49.50
13707;DHT22;6925;47.816;13.072;2022-09-13T10:38:40;28.00;48.50
13707;DHT22;6925;47.816;13.072;2022-09-13T10:41:18;28.20;47.80
13707;DHT22;6925;47.816;13.072;2022-09-13T10:43:46;28.40;47.20
13707;DHT22;6925;47.816;13.072;2022-09-13T10:46:22;28.50;47.80
13707;DHT22;6925;47.816;13.072;2022-09-13T10:48:49;28.80;46.70
13707;DHT22;6925;47.816;13.072;2022-09-13T10:51:34;28.90;47.90
13707;DHT22;6925;47.816;13.072;2022-09-13T10:54:16;29.10;46.90
13707;DHT22;6925;47.816;13.072;2022-09-13T10:56:45;29.20;47.90
13707;DHT22;6925;47.816;13.072;2022-09-13T10:59:19;29.30;47.10
13707;DHT22;6925;47.816;13.072;2022-09-13T11:02:06;29.40;48.80
13707;DHT22;6925;47.816;13.072;2022-09-13T11:04:57;29.60;47.60
13707;DHT22;6925;47.816;13.072;2022-09-13T11:10:48;29.80;46.60
13707;DHT22;6925;47.816;13.072;2022-09-13T11:13:25;29.90;46.60
13707;DHT22;6925;47.816;13.072;2022-09-13T11:15:59;30.20;44.80
13707;DHT22;6925;47.816;13.072;2022-09-13T11:19:06;30.30;43.80
13707;DHT22;6925;47.816;13.072;2022-09-13T11:21:46;30.50;44.40
13707;DHT22;6925;47.816;13.072;2022-09-13T11:24:34;30.70;44.30
13707;DHT22;6925;47.816;13.072;2022-09-13T11:30:57;30.70;43.50
13707;DHT22;6925;47.816;13.072;2022-09-13T11:33:37;30.80;45.60
13707;DHT22;6925;47.816;13.072;2022-09-13T11:36:44;31.00;43.50
13707;DHT22;6925;47.816;13.072;2022-09-13T11:39:21;31.30;41.50
13707;DHT22;6925;47.816;13.072;2022-09-13T11:42:04;31.40;42.40
13707;DHT22;6925;47.816;13.072;2022-09-13T11:45:12;31.50;41.10
13707;DHT22;6925;47.816;13.072;2022-09-13T11:51:08;31.70;40.50
13707;DHT22;6925;47.816;13.072;2022-09-13T11:54:00;31.70;38.40
13707;DHT22;6925;47.816;13.072;2022-09-13T11:56:32;31.70;38.80
13707;DHT22;6925;47.816;13.072;2022-09-13T11:59:09;31.80;38.40
13707;DHT22;6925;47.816;13.072;2022-09-13T12:01:40;31.90;39.00
13707;DHT22;6925;47.816;13.072;2022-09-13T12:04:16;31.90;39.30
13707;DHT22;6925;47.816;13.072;2022-09-13T12:06:47;32.10;40.40
13707;DHT22;6925;47.816;13.072;2022-09-13T12:09:22;32.20;41.00
13707;DHT22;6925;47.816;13.072;2022-09-13T12:11:54;32.40;39.50
13707;DHT22;6925;47.816;13.072;2022-09-13T12:14:24;32.50;40.90
13707;DHT22;6925;47.816;13.072;2022-09-13T12:16:57;32.50;40.60
13707;DHT22;6925;47.816;13.072;2022-09-13T12:19:29;32.50;38.80
13707;DHT22;6925;47.816;13.072;2022-09-13T12:22:01;32.60;40.60
13707;DHT22;6925;47.816;13.072;2022-09-13T12:24:36;32.70;39.80
13707;DHT22;6925;47.816;13.072;2022-09-13T12:27:08;32.80;40.10
13707;DHT22;6925;47.816;13.072;2022-09-13T12:29:42;32.80;38.60
13707;DHT22;6925;47.816;13.072;2022-09-13T12:32:11;32.90;39.20
13707;DHT22;6925;47.816;13.072;2022-09-13T12:34:43;33.00;38.70
13707;DHT22;6925;47.816;13.072;2022-09-13T12:37:25;33.30;37.80
13707;DHT22;6925;47.816;13.072;2022-09-13T12:40:14;33.40;37.20
13707;DHT22;6925;47.816;13.072;2022-09-13T12:46:31;33.60;38.80
13707;DHT22;6925;47.816;13.072;2022-09-13T12:49:20;33.60;39.10
13707;DHT22;6925;47.816;13.072;2022-09-13T12:52:15;33.50;38.40
13707;DHT22;6925;47.816;13.072;2022-09-13T12:57:46;33.00;40.60
13707;DHT22;6925;47.816;13.072;2022-09-13T13:00:20;33.00;41.60
13707;DHT22;6925;47.816;13.072;2022-09-13T13:02:58;32.80;39.60
13707;DHT22;6925;47.816;13.072;2022-09-13T13:05:30;32.60;41.30
13707;DHT22;6925;47.816;13.072;2022-09-13T13:08:02;32.40;41.20
13707;DHT22;6925;47.816;13.072;2022-09-13T13:10:33;32.20;40.90
13707;DHT22;6925;47.816;13.072;2022-09-13T13:16:18;31.80;42.70
13707;DHT22;6925;47.816;13.072;2022-09-13T13:18:47;31.60;43.10
13707;DHT22;6925;47.816;13.072;2022-09-13T13:21:34;31.40;43.90
13707;DHT22;6925;47.816;13.072;2022-09-13T13:32:18;30.70;43.50
13707;DHT22;6925;47.816;13.072;2022-09-13T13:34:53;30.60;43.90
13707;DHT22;6925;47.816;13.072;2022-09-13T13:37:41;30.50;44.00
13707;DHT22;6925;47.816;13.072;2022-09-13T13:40:20;30.50;44.80
13707;DHT22;6925;47.816;13.072;2022-09-13T13:42:50;30.60;44.60
13707;DHT22;6925;47.816;13.072;2022-09-13T13:45:23;30.60;44.50
13707;DHT22;6925;47.816;13.072;2022-09-13T13:48:10;30.60;44.70
13707;DHT22;6925;47.816;13.072;2022-09-13T13:53:44;30.50;44.70
13707;DHT22;6925;47.816;13.072;2022-09-13T13:56:19;30.50;44.30
13707;DHT22;6925;47.816;13.072;2022-09-13T13:58:53;30.50;46.30
13707;DHT22;6925;47.816;13.072;2022-09-13T14:01:24;30.50;46.60
13707;DHT22;6925;47.816;13.072;2022-09-13T14:07:37;30.40;46.10
13707;DHT22;6925;47.816;13.072;2022-09-13T14:10:16;30.40;46.30
13707;DHT22;6925;47.816;13.072;2022-09-13T14:13:16;30.30;46.70
13707;DHT22;6925;47.816;13.072;2022-09-13T14:15:51;30.20;46.60
13707;DHT22;6925;47.816;13.072;2022-09-13T14:21:33;30.20;45.20
13707;DHT22;6925;47.816;13.072;2022-09-13T14:24:10;30.20;47.20
13707;DHT22;6925;47.816;13.072;2022-09-13T14:26:39;30.30;46.70
13707;DHT22;6925;47.816;13.072;2022-09-13T14:32:31;30.60;45.80
13707;DHT22;6925;47.816;13.072;2022-09-13T14:35:22;30.80;46.10
13707;DHT22;6925;47.816;13.072;2022-09-13T14:37:52;30.90;44.70
13707;DHT22;6925;47.816;13.072;2022-09-13T14:40:21;31.00;42.30
13707;DHT22;6925;47.816;13.072;2022-09-13T14:42:51;31.20;41.20
13707;DHT22;6925;47.816;13.072;2022-09-13T14:48:46;31.50;42.80
13707;DHT22;6925;47.816;13.072;2022-09-13T14:51:19;31.80;41.50
13707;DHT22;6925;47.816;13.072;2022-09-13T14:53:51;32.00;43.60
13707;DHT22;6925;47.816;13.072;2022-09-13T14:56:30;32.20;44.20
13707;DHT22;6925;47.816;13.072;2022-09-13T14:59:01;32.40;43.60
13707;DHT22;6925;47.816;13.072;2022-09-13T15:01:34;32.50;42.90
13707;DHT22;6925;47.816;13.072;2022-09-13T15:04:03;32.60;42.10
13707;DHT22;6925;47.816;13.072;2022-09-13T15:06:39;32.60;41.80
13707;DHT22;6925;47.816;13.072;2022-09-13T15:09:26;32.60;41.80
13707;DHT22;6925;47.816;13.072;2022-09-13T15:14:35;32.50;40.10
13707;DHT22;6925;47.816;13.072;2022-09-13T15:17:17;32.50;39.40
13707;DHT22;6925;47.816;13.072;2022-09-13T15:19:48;32.50;39.10
13707;DHT22;6925;47.816;13.072;2022-09-13T15:22:21;32.40;40.10
13707;DHT22;6925;47.816;13.072;2022-09-13T15:24:52;32.30;38.70
13707;DHT22;6925;47.816;13.072;2022-09-13T15:27:25;32.10;40.80
13707;DHT22;6925;47.816;13.072;2022-09-13T15:29:55;32.10;41.80
13707;DHT22;6925;47.816;13.072;2022-09-13T15:32:32;32.00;42.70
13707;DHT22;6925;47.816;13.072;2022-09-13T15:35:01;31.90;42.10
13707;DHT22;6925;47.816;13.072;2022-09-13T15:37:36;31.80;40.90
13707;DHT22;6925;47.816;13.072;2022-09-13T15:40:29;31.50;38.70
13707;DHT22;6925;47.816;13.072;2022-09-13T15:43:07;31.10;40.20
13707;DHT22;6925;47.816;13.072;2022-09-13T15:45:34;30.90;41.10
13707;DHT22;6925;47.816;13.072;2022-09-13T15:48:02;30.80;41.70
13707;DHT22;6925;47.816;13.072;2022-09-13T15:50:32;30.50;42.30
13707;DHT22;6925;47.816;13.072;2022-09-13T15:53:09;30.40;42.70
13707;DHT22;6925;47.816;13.072;2022-09-13T15:55:40;30.30;43.80
13707;DHT22;6925;47.816;13.072;2022-09-13T15:58:09;30.20;45.00
13707;DHT22;6925;47.816;13.072;2022-09-13T16:00:37;30.20;45.10
13707;DHT22;6925;47.816;13.072;2022-09-13T16:03:05;30.00;45.10
13707;DHT22;6925;47.816;13.072;2022-09-13T16:05:33;30.00;45.70
13707;DHT22;6925;47.816;13.072;2022-09-13T16:08:02;29.80;45.90
13707;DHT22;6925;47.816;13.072;2022-09-13T16:10:30;29.70;46.30
13707;DHT22;6925;47.816;13.072;2022-09-13T16:12:59;29.60;46.90
13707;DHT22;6925;47.816;13.072;2022-09-13T16:15:26;29.50;47.30
13707;DHT22;6925;47.816;13.072;2022-09-13T16:17:55;29.30;47.50
13707;DHT22;6925;47.816;13.072;2022-09-13T16:20:25;29.20;47.80
13707;DHT22;6925;47.816;13.072;2022-09-13T16:22:53;29.00;48.60
13707;DHT22;6925;47.816;13.072;2022-09-13T16:25:20;28.90;48.50
13707;DHT22;6925;47.816;13.072;2022-09-13T16:27:48;28.70;49.00
13707;DHT22;6925;47.816;13.072;2022-09-13T16:30:20;28.60;49.00
13707;DHT22;6925;47.816;13.072;2022-09-13T16:32:48;28.40;49.20
13707;DHT22;6925;47.816;13.072;2022-09-13T16:35:16;28.30;49.40
13707;DHT22;6925;47.816;13.072;2022-09-13T16:37:44;28.10;49.80
13707;DHT22;6925;47.816;13.072;2022-09-13T16:43:15;27.90;51.40
13707;DHT22;6925;47.816;13.072;2022-09-13T16:45:44;27.70;51.10
13707;DHT22;6925;47.816;13.072;2022-09-13T16:48:15;27.60;51.20
13707;DHT22;6925;47.816;13.072;2022-09-13T16:50:43;27.50;51.30
13707;DHT22;6925;47.816;13.072;2022-09-13T16:53:12;27.30;51.40
13707;DHT22;6925;47.816;13.072;2022-09-13T16:55:41;27.20;51.60
13707;DHT22;6925;47.816;13.072;2022-09-13T16:58:10;27.10;51.70
13707;DHT22;6925;47.816;13.072;2022-09-13T17:00:38;26.90;51.80
13707;DHT22;6925;47.816;13.072;2022-09-13T17:03:09;26.80;52.30
13707;DHT22;6925;47.816;13.072;2022-09-13T17:05:59;26.70;52.50
13707;DHT22;6925;47.816;13.072;2022-09-13T17:08:27;26.50;53.20
13707;DHT22;6925;47.816;13.072;2022-09-13T17:10:55;26.40;52.70
13707;DHT22;6925;47.816;13.072;2022-09-13T17:13:23;26.30;53.10
13707;DHT22;6925;47.816;13.072;2022-09-13T17:15:50;26.20;53.40
13707;DHT22;6925;47.816;13.072;2022-09-13T17:18:21;26.10;53.70
13707;DHT22;6925;47.816;13.072;2022-09-13T17:20:52;26.00;54.10
13707;DHT22;6925;47.816;13.072;2022-09-13T17:23:21;25.90;55.00
13707;DHT22;6925;47.816;13.072;2022-09-13T17:25:53;25.80;54.70
13707;DHT22;6925;47.816;13.072;2022-09-13T17:28:21;25.70;54.90
13707;DHT22;6925;47.816;13.072;2022-09-13T17:30:48;25.60;54.80
13707;DHT22;6925;47.816;13.072;2022-09-13T17:33:38;25.50;55.00
13707;DHT22;6925;47.816;13.072;2022-09-13T17:36:20;25.40;55.90
13707;DHT22;6925;47.816;13.072;2022-09-13T17:38:53;25.30;56.20
13707;DHT22;6925;47.816;13.072;2022-09-13T17:41:32;25.20;56.00
13707;DHT22;6925;47.816;13.072;2022-09-13T17:44:08;25.10;55.90
13707;DHT22;6925;47.816;13.072;2022-09-13T17:46:55;25.00;56.20
13707;DHT22;6925;47.816;13.072;2022-09-13T17:49:28;25.00;56.60
13707;DHT22;6925;47.816;13.072;2022-09-13T17:51:58;24.90;56.60
13707;DHT22;6925;47.816;13.072;2022-09-13T17:54:32;24.80;56.50
13707;DHT22;6925;47.816;13.072;2022-09-13T17:57:00;24.70;56.80
13707;DHT22;6925;47.816;13.072;2022-09-13T17:59:31;24.60;57.20
13707;DHT22;6925;47.816;13.072;2022-09-13T18:01:59;24.60;57.20
13707;DHT22;6925;47.816;13.072;2022-09-13T18:04:58;24.60;57.20
13707;DHT22;6925;47.816;13.072;2022-09-13T18:34:56;23.80;59.40
13707;DHT22;6925;47.816;13.072;2022-09-13T18:37:26;23.80;59.20
13707;DHT22;6925;47.816;13.072;2022-09-13T18:39:54;23.80;59.40
13707;DHT22;6925;47.816;13.072;2022-09-13T18:42:22;23.70;59.40
13707;DHT22;6925;47.816;13.072;2022-09-13T18:44:49;23.60;59.50
13707;DHT22;6925;47.816;13.072;2022-09-13T18:47:16;23.60;59.50
13707;DHT22;6925;47.816;13.072;2022-09-13T18:49:44;23.50;59.60
13707;DHT22;6925;47.816;13.072;2022-09-13T18:52:13;23.50;59.60
13707;DHT22;6925;47.816;13.072;2022-09-13T18:54:41;23.50;59.70
13707;DHT22;6925;47.816;13.072;2022-09-13T18:57:09;23.40;59.80
13707;DHT22;6925;47.816;13.072;2022-09-13T18:59:37;23.30;59.70
13707;DHT22;6925;47.816;13.072;2022-09-13T19:02:05;23.30;59.70
13707;DHT22;6925;47.816;13.072;2022-09-13T20:01:26;22.30;62.60
13707;DHT22;6925;47.816;13.072;2022-09-13T20:03:56;22.30;62.70
13707;DHT22;6925;47.816;13.072;2022-09-13T20:34:24;21.80;63.60
13707;DHT22;6925;47.816;13.072;2022-09-13T20:44:06;21.60;64.20
13707;DHT22;6925;47.816;13.072;2022-09-13T20:59:51;21.50;64.30
13707;DHT22;6925;47.816;13.072;2022-09-13T21:02:18;21.50;64.40
13707;DHT22;6925;47.816;13.072;2022-09-13T21:04:46;21.40;64.30
13707;DHT22;6925;47.816;13.072;2022-09-13T21:07:15;21.50;64.30
13707;DHT22;6925;47.816;13.072;2022-09-13T21:09:59;21.50;64.30
13707;DHT22;6925;47.816;13.072;2022-09-13T21:12:30;21.40;64.20
13707;DHT22;6925;47.816;13.072;2022-09-13T21:15:09;21.40;64.40
13707;DHT22;6925;47.816;13.072;2022-09-13T21:17:50;21.30;64.30
13707;DHT22;6925;47.816;13.072;2022-09-13T21:20:33;21.40;64.60
13707;DHT22;6925;47.816;13.072;2022-09-13T21:23:11;21.30;64.70
13707;DHT22;6925;47.816;13.072;2022-09-13T21:25:55;21.30;64.80
13707;DHT22;6925;47.816;13.072;2022-09-13T21:28:32;21.30;65.00
13707;DHT22;6925;47.816;13.072;2022-09-13T21:31:21;21.20;64.70
13707;DHT22;6925;47.816;13.072;2022-09-13T21:34:16;21.10;64.90
13707;DHT22;6925;47.816;13.072;2022-09-13T21:37:01;21.20;64.60
13707;DHT22;6925;47.816;13.072;2022-09-13T21:40:00;21.10;65.10
13707;DHT22;6925;47.816;13.072;2022-09-13T21:42:37;21.10;65.10
13707;DHT22;6925;47.816;13.072;2022-09-13T21:45:11;21.10;65.00
13707;DHT22;6925;47.816;13.072;2022-09-13T21:48:06;21.10;65.10
13707;DHT22;6925;47.816;13.072;2022-09-13T21:51:03;21.00;64.80
13707;DHT22;6925;47.816;13.072;2022-09-13T21:56:46;21.00;65.30
13707;DHT22;6925;47.816;13.072;2022-09-13T21:59:24;21.00;65.10
13707;DHT22;6925;47.816;13.072;2022-09-13T22:01:58;20.90;65.20
13707;DHT22;6925;47.816;13.072;2022-09-13T22:11:16;20.80;64.80
13707;DHT22;6925;47.816;13.072;2022-09-13T22:13:53;20.80;64.50
13707;DHT22;6925;47.816;13.072;2022-09-13T22:19:59;20.70;64.60
13707;DHT22;6925;47.816;13.072;2022-09-13T22:22:27;20.70;64.70
13707;DHT22;6925;47.816;13.072;2022-09-13T22:24:54;20.70;64.50
13707;DHT22;6925;47.816;13.072;2022-09-13T22:27:25;20.70;64.00
13707;DHT22;6925;47.816;13.072;2022-09-13T22:30:00;20.70;64.40
13707;DHT22;6925;47.816;13.072;2022-09-13T22:32:28;20.60;64.80
13707;DHT22;6925;47.816;13.072;2022-09-13T22:35:02;20.60;65.00
13707;DHT22;6925;47.816;13.072;2022-09-13T22:37:32;20.60;65.60
13707;DHT22;6925;47.816;13.072;2022-09-13T22:39:59;20.60;64.80
13707;DHT22;6925;47.816;13.072;2022-09-13T22:42:28;20.60;64.50
13707;DHT22;6925;47.816;13.072;2022-09-13T22:44:57;20.60;64.50
13707;DHT22;6925;47.816;13.072;2022-09-13T22:47:27;20.50;65.50
13707;DHT22;6925;47.816;13.072;2022-09-13T22:49:58;20.50;65.20
13707;DHT22;6925;47.816;13.072;2022-09-13T22:52:26;20.50;65.00
13707;DHT22;6925;47.816;13.072;2022-09-13T22:54:53;20.50;65.00
13707;DHT22;6925;47.816;13.072;2022-09-13T22:57:21;20.50;65.00
13707;DHT22;6925;47.816;13.072;2022-09-13T22:59:50;20.50;64.90
13707;DHT22;6925;47.816;13.072;2022-09-13T23:02:18;20.50;64.80
13707;DHT22;6925;47.816;13.072;2022-09-13T23:04:47;20.50;65.00
13707;DHT22;6925;47.816;13.072;2022-09-13T23:07:14;20.50;64.70
13707;DHT22;6925;47.816;13.072;2022-09-13T23:09:42;20.40;64.80
13707;DHT22;6925;47.816;13.072;2022-09-13T23:12:10;20.40;64.80
13707;DHT22;6925;47.816;13.072;2022-09-13T23:14:37;20.40;65.00
13707;DHT22;6925;47.816;13.072;2022-09-13T23:17:07;20.40;65.00
13707;DHT22;6925;47.816;13.072;2022-09-13T23:19:35;20.40;64.90
13707;DHT22;6925;47.816;13.072;2022-09-13T23:22:03;20.40;65.10
13707;DHT22;6925;47.816;13.072;2022-09-13T23:24:31;20.40;65.30
13707;DHT22;6925;47.816;13.072;2022-09-13T23:26:58;20.40;65.30
13707;DHT22;6925;47.816;13.072;2022-09-13T23:29:26;20.40;65.10
13707;DHT22;6925;47.816;13.072;2022-09-13T23:31:53;20.40;65.10
13707;DHT22;6925;47.816;13.072;2022-09-13T23:34:23;20.40;65.10
13707;DHT22;6925;47.816;13.072;2022-09-13T23:36:50;20.40;64.90
13707;DHT22;6925;47.816;13.072;2022-09-13T23:39:18;20.40;64.50
13707;DHT22;6925;47.816;13.072;2022-09-13T23:41:47;20.30;65.10
13707;DHT22;6925;47.816;13.072;2022-09-13T23:44:16;20.40;65.40
13707;DHT22;6925;47.816;13.072;2022-09-13T23:46:44;20.40;65.40
13707;DHT22;6925;47.816;13.072;2022-09-13T23:49:13;20.40;65.70
13707;DHT22;6925;47.816;13.072;2022-09-13T23:51:46;20.40;65.50
13707;DHT22;6925;47.816;13.072;2022-09-13T23:54:14;20.40;65.60
13707;DHT22;6925;47.816;13.072;2022-09-13T23:56:42;20.40;65.60
13707;DHT22;6925;47.816;13.072;2022-09-13T23:59:11;20.40;65.50
